Costa Marques, Brazil
Current Conditions -  °F | °C
As of 1:00 PM on Friday 31 Oct 2014 (Local Time) from SLMG Reporting Station
Broken Clouds Broken Clouds  
Wind Chill: 91°   Ceiling: 8000
Heat Index: 102°   Visibility: 6mi
Dew Point: 75°   Wind: 9mph
Humidity: 59%   Direction: 320°NW
Pressure: 29.83"   Gusts: NA
Location:  12.45°S, 64.23°W
Report Text: SLMG 311700Z 32008KT 9999 SCT017 BKN080 33/24 Q1010
Loading
Personal Weather Stations






























Interactive Weather Map New forecast layout! Learn more

10-Day Weather Forecast

Advertisements
Track Severe Weather on mobile